Time;durP1;ratioP1;P1;durP2;ratioP2;P2;SDS_P1;SDS_P2;PMS_P1;PMS_P2;Temp;Humidity;BMP_temperature;BMP_pressure;BME280_temperature;BME280_humidity;BME280_pressure;Samples;Min_cycle;Max_cycle;Signal;HPM_P1;HPM_P2
2023/04/16 00:00:15;;;;;;;33.60;22.20;;;;;;;11.41;66.32;101316.00;685612;28;1067;-84
2023/04/16 00:00:35;;;;;;;36.42;22.10;;;;;;;11.28;66.44;101304.25;683250;28;1252;-84
2023/04/16 00:00:56;;;;;;;35.83;22.57;;;;;;;11.27;66.37;101296.38;683090;29;1195;-83
2023/04/16 00:01:16;;;;;;;35.25;22.45;;;;;;;11.27;66.17;101301.59;680350;29;1071;-83
2023/04/16 00:01:38;;;;;;;32.33;22.40;;;;;;;11.28;66.46;101313.81;683301;29;843;-85
2023/04/16 00:01:59;;;;;;;30.45;21.17;;;;;;;11.29;66.52;101310.38;685774;28;1276;-84
2023/04/16 00:02:20;;;;;;;31.33;20.93;;;;;;;11.30;66.25;101312.16;685620;28;1241;-84
2023/04/16 00:02:40;;;;;;;33.25;21.08;;;;;;;11.23;66.66;101304.09;683317;29;787;-85
2023/04/16 00:03:01;;;;;;;34.77;21.30;;;;;;;11.27;66.54;101306.81;683098;29;1191;-85
2023/04/16 00:03:22;;;;;;;36.03;21.80;;;;;;;11.29;66.29;101307.78;685749;28;1132;-85
2023/04/16 00:03:43;;;;;;;37.03;22.02;;;;;;;11.35;66.58;101326.25;683108;29;1273;-85
2023/04/16 00:04:03;;;;;;;36.50;22.23;;;;;;;11.29;66.51;101310.38;683025;29;1186;-84
2023/04/16 00:04:24;;;;;;;35.17;21.70;;;;;;;11.22;66.60;101307.56;680365;29;1245;-83
2023/04/16 00:04:45;;;;;;;34.88;21.27;;;;;;;11.27;66.55;101317.25;688484;28;1142;-84
2023/04/16 00:05:06;;;;;;;34.75;20.75;;;;;;;11.29;66.48;101315.63;685611;28;1103;-82
2023/04/16 00:05:26;;;;;;;34.17;20.90;;;;;;;11.30;66.59;101317.38;685761;28;1364;-82
2023/04/16 00:05:47;;;;;;;34.03;21.10;;;;;;;11.29;66.48;101310.38;688491;28;1096;-82
2023/04/16 00:06:09;;;;;;;35.00;21.75;;;;;;;11.31;66.57;101325.25;685703;28;1068;-82
2023/04/16 00:06:30;;;;;;;32.38;21.05;;;;;;;11.25;66.55;101304.16;683195;29;776;-82
2023/04/16 00:06:51;;;;;;;31.58;20.98;;;;;;;11.34;66.57;101319.25;685592;28;1055;-82
2023/04/16 00:07:12;;;;;;;31.90;21.23;;;;;;;11.35;66.56;101326.25;683205;29;1115;-82
2023/04/16 00:07:32;;;;;;;35.25;22.10;;;;;;;11.34;66.68;101322.75;685859;28;847;-83
2023/04/16 00:07:53;;;;;;;35.35;21.85;;;;;;;11.26;66.64;101303.34;688472;28;1272;-82
2023/04/16 00:08:14;;;;;;;34.50;21.63;;;;;;;11.38;66.73;101322.00;688424;28;1161;-82
2023/04/16 00:08:36;;;;;;;34.60;21.98;;;;;;;11.30;66.45;101304.31;685775;28;1248;-82
2023/04/16 00:08:56;;;;;;;33.95;21.88;;;;;;;11.31;66.46;101312.19;685783;28;1102;-82
2023/04/16 00:09:17;;;;;;;33.35;21.80;;;;;;;11.35;66.66;101321.94;685730;28;1262;-83
2023/04/16 00:09:39;;;;;;;32.00;21.60;;;;;;;11.34;66.67;101317.53;685886;28;1312;-83
2023/04/16 00:10:00;;;;;;;30.98;21.60;;;;;;;11.36;66.46;101320.19;683052;28;1239;-82
2023/04/16 00:10:20;;;;;;;30.40;21.37;;;;;;;11.41;66.66;101326.47;685651;28;1150;-82
2023/04/16 00:10:41;;;;;;;31.30;21.10;;;;;;;11.37;66.37;101314.16;688537;28;1213;-82
2023/04/16 00:11:02;;;;;;;32.00;20.70;;;;;;;11.42;66.38;101324.75;688419;28;1289;-83
2023/04/16 00:11:23;;;;;;;35.10;21.27;;;;;;;11.44;66.40;101328.28;685755;28;1159;-83
2023/04/16 00:11:43;;;;;;;35.90;21.65;;;;;;;11.37;66.28;101317.63;683221;29;1219;-82
2023/04/16 00:12:05;;;;;;;37.87;22.17;;;;;;;11.43;66.59;101327.41;680307;28;1236;-82
2023/04/16 00:12:26;;;;;;;35.70;21.70;;;;;;;11.41;66.35;101321.25;680403;29;1445;-83
2023/04/16 00:12:46;;;;;;;33.75;21.20;;;;;;;11.37;66.64;101327.22;685791;28;1312;-83
2023/04/16 00:13:07;;;;;;;32.67;21.10;;;;;;;11.30;66.31;101304.31;683175;28;1091;-83
2023/04/16 00:13:27;;;;;;;31.53;20.60;;;;;;;11.37;66.57;101330.69;682811;29;1170;-83
2023/04/16 00:13:48;;;;;;;33.38;21.38;;;;;;;11.35;66.73;101316.69;683221;29;1135;-82
2023/04/16 00:14:10;;;;;;;35.47;21.63;;;;;;;11.35;66.46;101315.78;683168;29;1259;-82
2023/04/16 00:14:30;;;;;;;36.17;22.00;;;;;;;11.33;66.58;101312.25;683216;29;1303;-82
2023/04/16 00:14:51;;;;;;;33.55;21.85;;;;;;;11.40;66.43;101318.56;683264;29;1298;-82
2023/04/16 00:15:11;;;;;;;32.03;21.83;;;;;;;11.30;66.64;101306.94;683320;29;1079;-82
2023/04/16 00:15:32;;;;;;;33.03;22.87;;;;;;;11.33;66.48;101313.16;686016;28;1986;-82
2023/04/16 00:15:52;;;;;;;34.58;22.20;;;;;;;11.31;66.39;101308.72;688686;28;1159;-83
2023/04/16 00:16:13;;;;;;;36.70;22.00;;;;;;;11.40;66.39;101322.06;688600;28;1306;-82
2023/04/16 00:16:34;;;;;;;39.28;21.98;;;;;;;11.35;66.42;101321.94;686121;28;1307;-82
2023/04/16 00:16:54;;;;;;;38.63;22.20;;;;;;;11.36;66.50;101315.84;683198;29;1323;-84
2023/04/16 00:17:15;;;;;;;38.00;22.07;;;;;;;11.30;66.43;101304.31;683320;29;1291;-82
2023/04/16 00:17:35;;;;;;;35.00;21.37;;;;;;;11.38;66.55;101321.16;683620;28;902;-83
2023/04/16 00:17:56;;;;;;;34.28;21.20;;;;;;;11.25;66.74;101301.56;688890;28;1126;-81
2023/04/16 00:18:16;;;;;;;34.10;21.43;;;;;;;11.37;66.28;101322.00;688727;28;1157;-83
2023/04/16 00:18:38;;;;;;;35.08;21.23;;;;;;;11.30;66.52;101312.16;686138;28;819;-82
2023/04/16 00:18:58;;;;;;;36.22;21.27;;;;;;;11.20;66.48;101300.50;686161;28;1061;-82
2023/04/16 00:19:31;;;;;;;39.83;21.40;;;;;;;11.19;66.70;101299.59;683434;28;1105;-82
2023/04/16 00:19:51;;;;;;;37.90;21.60;;;;;;;11.21;66.79;101313.63;683409;28;1138;-82
2023/04/16 00:20:12;;;;;;;32.90;21.05;;;;;;;11.24;66.71;101311.09;683235;28;1156;-82
2023/04/16 00:20:33;;;;;;;33.65;21.70;;;;;;;11.29;66.60;101315.63;686092;28;784;-83
2023/04/16 00:20:53;;;;;;;34.97;22.10;;;;;;;11.33;66.69;101318.38;688736;28;1021;-82
2023/04/16 00:21:14;;;;;;;36.63;22.50;;;;;;;11.29;66.74;101311.25;683294;28;1091;-82
2023/04/16 00:21:35;;;;;;;36.33;22.02;;;;;;;11.29;66.81;101305.16;683293;29;1236;-83
2023/04/16 00:21:55;;;;;;;36.45;21.70;;;;;;;11.31;66.09;101316.56;683302;29;998;-82
2023/04/16 00:22:34;;;;;;;34.77;21.60;;;;;;;11.40;66.32;101323.78;685864;28;1091;-82
2023/04/16 00:22:55;;;;;;;34.70;21.65;;;;;;;11.31;66.41;101306.09;683140;29;1507;-82
2023/04/16 00:23:16;;;;;;;35.30;21.10;;;;;;;11.41;66.42;101322.97;682958;29;1243;-82
2023/04/16 00:23:37;;;;;;;33.25;20.55;;;;;;;11.32;66.67;101305.25;683131;28;1086;-83
2023/04/16 00:23:57;;;;;;;32.63;20.52;;;;;;;11.40;66.47;101329.91;683162;29;1363;-82
2023/04/16 00:24:18;;;;;;;34.13;21.13;;;;;;;11.34;66.39;101308.78;680337;29;1184;-82
2023/04/16 00:24:38;;;;;;;36.33;21.43;;;;;;;11.32;66.22;101308.72;683338;28;784;-82
2023/04/16 00:24:59;;;;;;;37.22;21.98;;;;;;;11.31;66.13;101311.31;685652;28;1207;-83
2023/04/16 00:25:20;;;;;;;35.40;22.20;;;;;;;11.35;66.24;101315.78;685786;28;1174;-82
2023/04/16 00:25:41;;;;;;;34.20;22.98;;;;;;;11.42;66.15;101328.22;685877;28;1500;-82
2023/04/16 00:26:02;;;;;;;34.60;22.13;;;;;;;11.39;66.29;101317.69;685581;28;1122;-82
2023/04/16 00:26:23;;;;;;;35.25;21.52;;;;;;;11.32;66.44;101302.63;685779;28;1137;-82
2023/04/16 00:26:45;;;;;;;35.05;21.02;;;;;;;11.37;66.46;101314.16;685723;28;685;-84
2023/04/16 00:27:06;;;;;;;33.55;21.52;;;;;;;11.39;66.08;101322.91;690989;28;1225;-82
2023/04/16 00:27:26;;;;;;;33.38;22.10;;;;;;;11.32;66.46;101300.91;683198;28;815;-82
2023/04/16 00:27:47;;;;;;;35.30;22.40;;;;;;;11.33;66.47;101302.69;685766;28;1157;-81
2023/04/16 00:28:07;;;;;;;35.08;22.60;;;;;;;11.33;66.25;101307.03;682979;29;1136;-82
2023/04/16 00:28:29;;;;;;;36.65;22.50;;;;;;;11.37;66.14;101308.91;683220;29;784;-82
2023/04/16 00:28:49;;;;;;;34.88;21.45;;;;;;;11.30;66.22;101306.94;688444;28;1183;-82
2023/04/16 00:29:10;;;;;;;35.90;21.20;;;;;;;11.37;66.26;101319.38;688219;28;1124;-82
2023/04/16 00:29:32;;;;;;;36.20;20.77;;;;;;;11.38;66.53;101315.91;688566;28;1298;-81
2023/04/16 00:29:53;;;;;;;37.05;21.00;;;;;;;11.27;66.46;101301.59;685600;28;1124;-82
2023/04/16 00:30:13;;;;;;;36.10;21.60;;;;;;;11.31;66.60;101309.56;685611;28;1032;-82
2023/04/16 00:30:34;;;;;;;34.95;22.75;;;;;;;11.41;66.37;101316.00;685858;28;814;-83
2023/04/16 00:30:55;;;;;;;36.95;23.15;;;;;;;11.37;66.71;101320.25;685801;28;1010;-83
2023/04/16 00:31:15;;;;;;;35.13;21.87;;;;;;;11.32;66.45;101315.72;683022;29;1017;-82
2023/04/16 00:31:36;;;;;;;34.40;21.27;;;;;;;11.32;66.49;101310.47;685908;28;792;-82
2023/04/16 00:31:57;;;;;;;32.75;21.17;;;;;;;11.28;66.53;101304.25;685630;28;1271;-82
2023/04/16 00:32:17;;;;;;;35.10;22.13;;;;;;;11.37;66.45;101322.00;688268;28;1204;-82
2023/04/16 00:32:38;;;;;;;34.33;21.83;;;;;;;11.32;66.20;101319.19;683290;29;805;-83
2023/04/16 00:32:59;;;;;;;34.05;21.85;;;;;;;11.23;66.45;101306.72;685742;28;1217;-83
2023/04/16 00:33:19;;;;;;;32.25;21.70;;;;;;;11.26;66.39;101305.03;685617;28;1289;-83
2023/04/16 00:33:40;;;;;;;34.77;22.13;;;;;;;11.25;66.40;101309.41;685779;28;792;-82
2023/04/16 00:34:00;;;;;;;34.17;22.10;;;;;;;11.30;66.66;101317.38;683001;28;1063;-82
2023/04/16 00:34:21;;;;;;;33.15;21.63;;;;;;;11.34;66.63;101319.25;682939;28;1063;-82
2023/04/16 00:34:42;;;;;;;31.23;21.07;;;;;;;11.27;66.71;101301.59;685789;28;1209;-82
2023/04/16 00:35:02;;;;;;;33.45;21.58;;;;;;;11.20;66.95;101306.59;688319;28;1205;-83
2023/04/16 00:35:23;;;;;;;35.13;21.92;;;;;;;11.22;66.82;101310.19;688383;28;1947;-83
2023/04/16 00:35:47;;;;;;;36.97;22.13;;;;;;;11.32;66.48;101316.56;688588;28;811;-83
2023/04/16 00:36:08;;;;;;;36.20;21.80;;;;;;;11.26;66.43;101315.50;685731;28;1187;-83
2023/04/16 00:36:29;;;;;;;36.03;21.95;;;;;;;11.22;66.66;101294.50;683105;29;769;-82
2023/04/16 00:36:49;;;;;;;34.57;21.77;;;;;;;11.34;66.44;101311.41;682871;29;1021;-83
2023/04/16 00:37:10;;;;;;;35.63;22.33;;;;;;;11.33;66.47;101307.03;685590;28;1225;-83
2023/04/16 00:37:31;;;;;;;37.42;23.10;;;;;;;11.30;66.32;101306.94;685382;28;1245;-82
2023/04/16 00:37:51;;;;;;;40.53;23.73;;;;;;;11.29;66.64;101310.38;683005;28;1333;-82
2023/04/16 00:38:12;;;;;;;41.80;23.90;;;;;;;11.36;66.75;101328.03;688331;28;1086;-83
2023/04/16 00:38:33;;;;;;;37.85;22.75;;;;;;;11.32;66.43;101305.25;688520;28;930;-82
2023/04/16 00:38:55;;;;;;;37.90;22.73;;;;;;;11.27;66.84;101307.72;685747;28;1110;-83
2023/04/16 00:39:16;;;;;;;37.22;22.63;;;;;;;11.28;66.54;101313.81;683008;29;1116;-82
2023/04/16 00:39:36;;;;;;;38.70;22.95;;;;;;;11.32;66.71;101323.53;683182;28;820;-82
2023/04/16 00:39:57;;;;;;;36.40;23.10;;;;;;;11.20;66.63;101314.44;682953;29;1052;-82
2023/04/16 00:40:17;;;;;;;34.72;22.73;;;;;;;11.23;66.59;101316.28;680326;29;1195;-83
2023/04/16 00:40:38;;;;;;;31.80;21.95;;;;;;;11.15;66.83;101304.66;683576;28;1324;-82
2023/04/16 00:40:59;;;;;;;33.13;22.13;;;;;;;11.14;66.57;101306.41;685801;28;1114;-83
2023/04/16 00:41:20;;;;;;;35.53;23.00;;;;;;;11.12;66.91;101294.13;685534;28;1136;-83
2023/04/16 00:41:42;;;;;;;36.00;23.10;;;;;;;11.17;66.57;101303.91;683112;28;1189;-83
2023/04/16 00:42:02;;;;;;;34.28;22.80;;;;;;;11.29;66.53;101320.84;682992;28;1312;-83
2023/04/16 00:42:23;;;;;;;34.10;23.00;;;;;;;11.27;66.61;101318.16;683045;28;914;-83
2023/04/16 00:42:44;;;;;;;36.50;23.42;;;;;;;11.20;66.39;101305.72;683073;29;1151;-83
2023/04/16 00:43:05;;;;;;;40.45;23.67;;;;;;;11.24;66.76;101324.16;682877;29;1288;-83
2023/04/16 00:43:26;;;;;;;41.55;23.40;;;;;;;11.21;66.67;101308.41;685758;28;891;-83
2023/04/16 00:43:46;;;;;;;42.42;23.58;;;;;;;11.22;66.63;101315.41;685794;28;1278;-83
2023/04/16 00:44:07;;;;;;;39.93;22.67;;;;;;;11.18;66.71;101312.63;685563;28;1151;-82
2023/04/16 00:44:28;;;;;;;37.72;22.42;;;;;;;11.17;66.52;101303.03;685739;28;962;-83
2023/04/16 00:44:48;;;;;;;41.50;22.10;;;;;;;11.23;66.71;101314.56;683134;28;1254;-83
2023/04/16 00:45:10;;;;;;;42.47;22.55;;;;;;;11.22;66.55;101314.50;682861;29;1108;-83
2023/04/16 00:45:30;;;;;;;43.20;23.50;;;;;;;11.20;66.56;101314.44;680568;29;1265;-83
2023/04/16 00:45:52;;;;;;;40.20;24.83;;;;;;;11.32;66.69;101326.16;680429;29;1010;-83
2023/04/16 00:46:14;;;;;;;40.33;24.83;;;;;;;11.23;66.54;101309.34;685564;28;1279;-83
2023/04/16 00:46:36;;;;;;;40.15;23.85;;;;;;;11.23;66.70;101317.19;686218;28;1439;-83
2023/04/16 00:46:58;;;;;;;39.03;22.52;;;;;;;11.14;66.75;101306.41;682867;28;955;-82
2023/04/16 00:47:20;;;;;;;37.92;23.15;;;;;;;11.22;66.73;101325.84;685592;28;1268;-83
2023/04/16 00:47:41;;;;;;;39.75;24.23;;;;;;;11.22;66.80;101314.50;683098;29;831;-82
2023/04/16 00:48:02;;;;;;;39.55;24.80;;;;;;;11.24;66.44;101318.94;685516;28;1485;-83
2023/04/16 00:48:26;;;;;;;38.60;23.92;;;;;;;11.11;66.72;101316.75;685623;28;1202;-82
2023/04/16 00:48:56;;;;;;;36.03;22.33;;;;;;;11.14;66.69;101314.25;685761;28;935;-82
2023/04/16 00:49:17;;;;;;;38.58;23.00;;;;;;;11.22;66.53;101317.09;685562;28;1008;-83
2023/04/16 00:49:38;;;;;;;39.30;23.73;;;;;;;11.22;66.72;101320.63;685845;28;906;-83
2023/04/16 00:49:59;;;;;;;38.80;23.25;;;;;;;11.20;66.60;101317.06;685745;28;1188;-83
2023/04/16 00:50:20;;;;;;;38.78;23.45;;;;;;;11.23;66.71;101319.78;685545;28;1174;-82
2023/04/16 00:50:41;;;;;;;41.03;24.00;;;;;;;11.28;66.50;101317.31;685694;28;1223;-82
2023/04/16 00:51:04;;;;;;;42.22;24.55;;;;;;;11.29;66.43;101320.84;688252;28;1144;-83
2023/04/16 00:51:25;;;;;;;41.90;24.35;;;;;;;11.17;66.75;101303.91;685708;28;879;-82
2023/04/16 00:51:46;;;;;;;38.33;23.40;;;;;;;11.27;66.58;101325.09;685777;28;813;-82
2023/04/16 00:52:09;;;;;;;42.67;23.85;;;;;;;11.20;66.61;101310.94;682856;29;1235;-83
2023/04/16 00:52:33;;;;;;;45.35;23.98;;;;;;;11.21;66.76;101299.66;685764;28;898;-82
2023/04/16 00:52:55;;;;;;;43.88;23.33;;;;;;;11.30;66.67;101320.00;685625;28;988;-82
2023/04/16 00:53:16;;;;;;;40.42;23.90;;;;;;;11.23;66.50;101319.78;682901;28;1197;-82
2023/04/16 00:53:37;;;;;;;40.33;24.48;;;;;;;11.26;66.49;101312.88;683035;29;809;-82
2023/04/16 00:53:58;;;;;;;39.97;24.55;;;;;;;11.22;66.52;101312.78;683028;29;898;-82
2023/04/16 00:54:18;;;;;;;38.92;24.10;;;;;;;11.24;66.38;101316.34;685600;28;1072;-83
2023/04/16 00:54:39;;;;;;;36.87;24.00;;;;;;;11.20;66.54;101306.59;683162;29;1156;-82
2023/04/16 00:55:00;;;;;;;39.13;24.25;;;;;;;11.30;66.52;101317.38;685617;28;1053;-82
2023/04/16 00:55:21;;;;;;;36.53;23.30;;;;;;;11.21;66.42;101307.50;682857;29;1907;-82
2023/04/16 00:55:42;;;;;;;38.10;23.02;;;;;;;11.20;66.51;101310.94;685666;28;1297;-82
2023/04/16 00:56:04;;;;;;;35.15;22.98;;;;;;;11.27;66.52;101314.66;685434;28;1358;-83
2023/04/16 00:56:25;;;;;;;37.75;24.13;;;;;;;11.27;66.58;101312.03;685658;28;869;-82
2023/04/16 00:56:46;;;;;;;39.57;24.83;;;;;;;11.27;66.74;101306.81;685643;28;771;-81
2023/04/16 00:57:09;;;;;;;41.90;24.33;;;;;;;11.33;66.39;101328.84;688139;28;1155;-82
2023/04/16 00:57:30;;;;;;;39.28;23.38;;;;;;;11.26;66.65;101310.28;683088;28;1258;-83
2023/04/16 00:57:50;;;;;;;40.13;23.10;;;;;;;11.26;66.47;101310.28;683094;29;1219;-83
2023/04/16 00:58:11;;;;;;;40.05;23.30;;;;;;;11.29;66.63;101315.63;685538;28;1177;-83
2023/04/16 00:58:34;;;;;;;40.63;23.17;;;;;;;11.22;66.70;101310.19;685771;28;1338;-82
2023/04/16 00:58:55;;;;;;;40.75;23.60;;;;;;;11.28;66.70;101313.81;688348;28;1025;-82
2023/04/16 00:59:16;;;;;;;40.75;24.25;;;;;;;11.30;66.58;101312.16;685471;28;1278;-82
2023/04/16 00:59:37;;;;;;;39.60;24.38;;;;;;;11.30;66.37;101317.38;685852;28;994;-82
2023/04/16 00:59:57;;;;;;;40.05;24.80;;;;;;;11.35;66.46;101331.47;688407;28;989;-82
2023/04/16 01:00:20;;;;;;;39.33;24.57;;;;;;;11.34;66.48;101324.47;688074;28;1187;-82
2023/04/16 01:00:40;;;;;;;40.80;25.25;;;;;;;11.29;66.45;101310.38;685825;28;760;-82
2023/04/16 01:01:01;;;;;;;39.77;24.87;;;;;;;11.32;66.49;101311.34;685624;28;1119;-82
2023/04/16 01:01:21;;;;;;;39.83;24.35;;;;;;;11.31;66.38;101308.72;685535;28;1335;-83
2023/04/16 01:01:42;;;;;;;39.35;23.52;;;;;;;11.21;66.40;101302.28;685749;28;1096;-82
2023/04/16 01:02:03;;;;;;;40.80;24.13;;;;;;;11.27;66.59;101306.81;685572;28;1262;-82
2023/04/16 01:02:24;;;;;;;40.63;24.40;;;;;;;11.29;66.33;101316.47;685633;28;854;-82
2023/04/16 01:02:44;;;;;;;41.92;25.05;;;;;;;11.22;66.48;101306.66;688445;28;764;-83
2023/04/16 01:03:05;;;;;;;40.30;24.65;;;;;;;11.29;66.52;101313.88;685691;28;1112;-82
2023/04/16 01:03:37;;;;;;;40.97;24.50;;;;;;;11.29;66.39;101320.84;685851;28;1165;-82
2023/04/16 01:03:57;;;;;;;40.72;24.25;;;;;;;11.30;66.77;101323.47;685774;28;1179;-83
2023/04/16 01:04:18;;;;;;;40.63;23.83;;;;;;;11.33;66.64;101335.78;683765;28;1279;-82
2023/04/16 01:05:02;;;;;;;38.08;23.85;;;;;;;11.35;66.63;101334.09;683296;29;1044;-83
2023/04/16 01:05:22;;;;;;;41.08;23.50;;;;;;;11.28;66.45;101319.94;688596;28;1293;-82
2023/04/16 01:05:44;;;;;;;42.50;24.00;;;;;;;11.34;66.42;101324.47;689148;28;894;-82
2023/04/16 01:06:06;;;;;;;41.45;24.90;;;;;;;11.27;66.78;101318.16;688829;28;1250;-83
2023/04/16 01:06:27;;;;;;;40.70;25.52;;;;;;;11.27;66.59;101317.25;688972;28;1246;-82
2023/04/16 01:06:48;;;;;;;42.20;25.55;;;;;;;11.29;66.46;101320.84;689213;28;1085;-83
2023/04/16 01:07:11;;;;;;;40.40;24.73;;;;;;;11.30;66.55;101320.00;691473;28;1041;-82
2023/04/16 01:07:32;;;;;;;40.85;24.25;;;;;;;11.22;66.41;101315.41;688987;28;1120;-82
2023/04/16 01:07:52;;;;;;;44.15;25.10;;;;;;;11.23;66.42;101309.34;688464;28;1128;-82
2023/04/16 01:08:17;;;;;;;43.05;25.65;;;;;;;11.34;66.56;101338.44;693753;28;1233;-82
2023/04/16 01:08:38;;;;;;;40.80;24.92;;;;;;;11.33;66.50;101327.94;689032;28;1002;-82
2023/04/16 01:08:59;;;;;;;41.20;24.63;;;;;;;11.28;66.52;101316.44;689025;28;1041;-82
2023/04/16 01:09:20;;;;;;;42.92;25.00;;;;;;;11.31;66.61;101314.81;689161;28;1337;-83
2023/04/16 01:09:40;;;;;;;46.30;25.43;;;;;;;11.31;66.35;101316.56;688787;28;1086;-83
2023/04/16 01:10:02;;;;;;;44.15;25.88;;;;;;;11.28;66.37;101314.72;685886;29;1105;-82
2023/04/16 01:10:22;;;;;;;41.85;25.17;;;;;;;11.29;66.42;101313.88;685527;28;1129;-82
2023/04/16 01:10:44;;;;;;;39.95;25.08;;;;;;;11.25;66.44;101314.63;685416;28;1341;-82
2023/04/16 01:11:05;;;;;;;39.03;24.05;;;;;;;11.30;66.59;101317.38;684863;28;1095;-82
2023/04/16 01:11:26;;;;;;;36.97;23.45;;;;;;;11.31;66.75;101321.78;689984;28;966;-82
2023/04/16 01:11:46;;;;;;;35.88;22.98;;;;;;;11.29;66.22;101315.63;683416;28;1140;-83
2023/04/16 01:12:07;;;;;;;36.27;23.23;;;;;;;11.34;66.18;101330.59;683535;29;1123;-83
2023/04/16 01:12:28;;;;;;;39.40;24.52;;;;;;;11.29;66.37;101310.38;683554;28;1179;-82
2023/04/16 01:12:48;;;;;;;43.63;25.05;;;;;;;11.34;66.62;101314.03;683540;29;1186;-82
2023/04/16 01:13:09;;;;;;;45.57;25.73;;;;;;;11.31;66.29;101316.56;683551;29;1065;-81
2023/04/16 01:13:30;;;;;;;46.50;25.80;;;;;;;11.37;66.52;101328.09;686366;28;1244;-82
2023/04/16 01:13:50;;;;;;;44.20;26.35;;;;;;;11.32;66.54;101321.81;683371;28;1043;-82
2023/04/16 01:14:11;;;;;;;42.60;25.40;;;;;;;11.33;66.44;101322.72;683309;29;997;-82
2023/04/16 01:14:35;;;;;;;41.08;24.50;;;;;;;11.32;66.44;101313.09;686042;28;862;-82
2023/04/16 01:14:56;;;;;;;39.40;23.95;;;;;;;11.31;66.59;101330.47;688793;28;1254;-81
2023/04/16 01:15:17;;;;;;;38.60;24.33;;;;;;;11.22;66.67;101312.78;688602;28;1073;-82
2023/04/16 01:15:38;;;;;;;39.13;25.30;;;;;;;11.28;66.48;101324.25;683520;29;1210;-82
2023/04/16 01:16:00;;;;;;;40.30;25.17;;;;;;;11.22;66.56;101309.28;683357;29;1043;-83
2023/04/16 01:16:20;;;;;;;41.65;25.63;;;;;;;11.29;66.60;101323.44;688502;28;1322;-82
2023/04/16 01:16:41;;;;;;;41.85;25.60;;;;;;;11.23;66.87;101306.72;691305;28;790;-82
2023/04/16 01:17:02;;;;;;;41.05;25.80;;;;;;;11.27;66.42;101309.44;683167;28;1219;-81
2023/04/16 01:17:23;;;;;;;41.40;25.60;;;;;;;11.30;66.49;101320.88;683078;29;1056;-82
2023/04/16 01:17:46;;;;;;;41.80;25.60;;;;;;;11.28;66.47;101306.88;685999;28;1201;-82
2023/04/16 01:18:15;;;;;;;40.10;24.92;;;;;;;11.38;66.30;101321.16;682182;29;1459;-81
2023/04/16 01:18:36;;;;;;;41.10;24.90;;;;;;;11.43;66.36;101331.75;683204;29;852;-83
2023/04/16 01:18:57;;;;;;;39.70;24.45;;;;;;;11.40;66.21;101315.94;685780;28;1056;-82
2023/04/16 01:19:18;;;;;;;41.20;24.70;;;;;;;11.31;66.22;101314.81;685837;28;1134;-82
2023/04/16 01:19:39;;;;;;;40.92;24.30;;;;;;;11.26;66.37;101294.59;683131;29;1277;-82
2023/04/16 01:20:00;;;;;;;44.53;25.50;;;;;;;11.37;66.14;101314.16;683137;29;1154;-82
2023/04/16 01:20:20;;;;;;;43.27;25.53;;;;;;;11.27;66.17;101312.03;682850;28;1181;-82
2023/04/16 01:20:41;;;;;;;42.33;25.17;;;;;;;11.23;66.27;101309.34;683120;28;1075;-82
2023/04/16 01:21:02;;;;;;;40.40;24.52;;;;;;;11.18;66.29;101313.50;685572;28;1320;-82
2023/04/16 01:21:23;;;;;;;42.35;25.27;;;;;;;11.22;66.63;101318.00;688429;28;1094;-83
2023/04/16 01:21:44;;;;;;;43.50;25.40;;;;;;;11.15;66.60;101304.66;691135;28;871;-82
2023/04/16 01:22:05;;;;;;;42.78;25.02;;;;;;;11.18;66.52;101316.13;688304;28;1050;-83
2023/04/16 01:22:27;;;;;;;43.55;25.67;;;;;;;11.21;66.42;101318.84;688200;28;1185;-82
2023/04/16 01:22:47;;;;;;;46.53;26.70;;;;;;;11.27;66.68;101330.31;688416;28;1249;-82
2023/04/16 01:23:08;;;;;;;46.13;26.73;;;;;;;11.21;66.79;101324.06;685578;28;987;-83
2023/04/16 01:23:29;;;;;;;46.47;25.67;;;;;;;11.19;66.50;101320.50;688388;28;1046;-82
2023/04/16 01:23:50;;;;;;;42.88;25.08;;;;;;;11.19;66.50;101323.13;688308;28;1083;-81
2023/04/16 01:24:10;;;;;;;42.47;25.55;;;;;;;11.13;66.78;101314.19;685480;28;1194;-82
2023/04/16 01:24:31;;;;;;;40.95;26.10;;;;;;;11.21;66.58;101329.31;683137;29;907;-83
2023/04/16 01:24:52;;;;;;;39.83;25.40;;;;;;;11.13;66.64;101315.09;688345;28;1389;-80
2023/04/16 01:25:15;;;;;;;39.53;24.42;;;;;;;11.15;66.69;101323.88;688136;28;1076;-82
2023/04/16 01:25:35;;;;;;;42.22;25.10;;;;;;;11.20;66.51;101326.63;685859;28;744;-82
2023/04/16 01:25:56;;;;;;;42.47;25.02;;;;;;;11.22;66.69;101331.06;685787;28;1224;-83
2023/04/16 01:26:36;;;;;;;42.07;25.10;;;;;;;11.24;66.75;101334.63;685603;28;1309;-83
2023/04/16 01:26:58;;;;;;;43.80;25.20;;;;;;;11.22;66.60;101331.06;685593;28;1113;-81
2023/04/16 01:27:18;;;;;;;43.63;25.90;;;;;;;11.16;66.54;101324.72;688365;28;1104;-82
2023/04/16 01:27:39;;;;;;;42.87;25.90;;;;;;;11.14;66.70;101316.88;685659;28;1143;-83
2023/04/16 01:28:00;;;;;;;42.90;25.42;;;;;;;11.10;66.68;101320.19;683000;28;996;-83
2023/04/16 01:28:21;;;;;;;43.50;25.27;;;;;;;11.22;66.69;101327.56;688330;28;1312;-82
2023/04/16 01:28:42;;;;;;;45.35;24.92;;;;;;;11.17;66.64;101327.41;682949;29;1090;-82
2023/04/16 01:29:03;;;;;;;44.45;25.08;;;;;;;11.15;66.66;101318.63;682901;28;1325;-83
2023/04/16 01:29:23;;;;;;;45.53;25.50;;;;;;;11.17;66.49;101327.41;682902;28;1173;-83
2023/04/16 01:29:44;;;;;;;45.42;25.98;;;;;;;11.13;66.46;101319.41;683121;28;902;-83
2023/04/16 01:30:06;;;;;;;44.70;25.98;;;;;;;11.18;66.39;101323.94;682913;29;1123;-83
2023/04/16 01:30:37;;;;;;;42.53;26.30;;;;;;;11.18;66.47;101329.19;685675;28;946;-82
2023/04/16 01:31:24;;;;;;;42.45;25.95;;;;;;;11.15;66.44;101321.25;685440;28;981;-83
2023/04/16 01:32:14;;;;;;;43.13;26.17;;;;;;;11.19;66.29;101330.94;690649;28;1268;-82
2023/04/16 01:32:36;;;;;;;41.45;25.90;;;;;;;11.21;66.54;101325.78;689380;28;1110;-82
2023/04/16 01:32:57;;;;;;;41.85;26.60;;;;;;;11.22;66.42;101331.06;685714;28;1091;-82
2023/04/16 01:33:18;;;;;;;40.78;26.67;;;;;;;11.28;66.44;101340.84;682887;28;1179;-83
2023/04/16 01:33:38;;;;;;;40.67;27.13;;;;;;;11.20;66.59;101327.50;688338;28;1312;-82
2023/04/16 01:34:00;;;;;;;40.90;26.20;;;;;;;11.28;66.54;101339.94;685677;28;1073;-82
2023/04/16 01:34:22;;;;;;;42.10;26.20;;;;;;;11.21;66.60;101331.00;688180;28;1038;-82
2023/04/16 01:34:43;;;;;;;41.22;25.08;;;;;;;11.25;66.42;101343.38;685700;28;904;-82
2023/04/16 01:35:04;;;;;;;42.38;24.92;;;;;;;11.27;66.42;101343.38;685586;28;1083;-82
2023/04/16 01:35:25;;;;;;;42.38;25.38;;;;;;;11.17;66.63;101322.19;685695;28;1968;-83
2023/04/16 01:35:45;;;;;;;45.80;26.90;;;;;;;11.29;66.59;101347.84;683151;29;753;-83
2023/04/16 01:36:08;;;;;;;44.78;27.08;;;;;;;11.30;66.48;101346.13;687996;28;1346;-83
2023/04/16 01:36:28;;;;;;;43.28;26.35;;;;;;;11.38;66.20;101339.44;690897;28;1309;-83
2023/04/16 01:36:50;;;;;;;42.95;25.65;;;;;;;11.44;66.01;101344.84;682942;28;1283;-84
2023/04/16 01:37:11;;;;;;;42.05;25.92;;;;;;;11.62;65.76;101356.78;685374;28;1124;-83
2023/04/16 01:37:32;;;;;;;40.00;25.40;;;;;;;11.69;65.87;101357.88;693811;28;1342;-83
2023/04/16 01:37:53;;;;;;;42.60;26.25;;;;;;;11.65;65.26;101344.72;688138;28;1292;-83
2023/04/16 01:38:14;;;;;;;45.08;26.25;;;;;;;11.67;65.17;101349.97;682833;29;1280;-82
2023/04/16 01:38:34;;;;;;;44.95;26.88;;;;;;;11.70;64.94;101339.66;685698;28;883;-83
2023/04/16 01:39:14;;;;;;;44.40;26.23;;;;;;;11.76;64.97;101354.63;685002;28;1125;-82
2023/04/16 01:39:35;;;;;;;41.35;25.60;;;;;;;11.66;64.99;101343.00;682959;29;1462;-83
2023/04/16 01:39:55;;;;;;;43.00;26.20;;;;;;;11.60;65.33;101361.03;685677;28;1121;-83
2023/04/16 01:40:16;;;;;;;42.63;26.13;;;;;;;11.47;65.47;101358.03;688141;28;1314;-82
2023/04/16 01:40:37;;;;;;;43.38;25.40;;;;;;;11.35;65.71;101348.06;685655;28;1227;-83
2023/04/16 01:40:58;;;;;;;42.15;25.38;;;;;;;11.40;66.05;101356.06;682874;29;1261;-81